Time;durP1;ratioP1;P1;durP2;ratioP2;P2;SDS_P1;SDS_P2;PMS_P1;PMS_P2;Temp;Humidity;BMP_temperature;BMP_pressure;BME280_temperature;BME280_humidity;BME280_pressure;Samples;Min_cycle;Max_cycle;Signal;HPM_P1;HPM_P2
2022/11/01 05:01:47;;;;;;;17.08;15.48;;;;;;;;;;5453373;23;20937;-90
2022/11/01 05:04:19;;;;;;;16.98;15.38;;;;;;;;;;5019381;28;20418;-92
2022/11/01 05:06:45;;;;;;;17.63;16.00;;;;;;;;;;5017904;28;20385;-93
2022/11/01 05:09:11;;;;;;;22.30;19.85;;;;;;;;;;5016450;28;20396;-91
2022/11/01 05:11:39;;;;;;;57.22;36.58;;;;;;;;;;5014087;28;20385;-90
2022/11/01 05:14:05;;;;;;;54.00;33.72;;;;;;;;;;5004911;28;20689;-92
2022/11/01 05:16:36;;;;;;;33.17;25.65;;;;;;;;;;4995774;28;20385;-92
2022/11/01 05:19:02;;;;;;;22.15;19.75;;;;;;;;;;4996098;28;20382;-92
2022/11/01 05:21:28;;;;;;;19.58;17.77;;;;;;;;;;4998780;28;20379;-93
2022/11/01 05:23:54;;;;;;;18.65;16.75;;;;;;;;;;4996801;28;20374;-93
2022/11/01 05:26:20;;;;;;;15.10;13.90;;;;;;;;;;4996176;28;20412;-93
2022/11/01 05:28:46;;;;;;;15.60;14.30;;;;;;;;;;5002118;28;20468;-91
2022/11/01 05:37:44;;;;;;;15.93;14.52;;;;;;;;;;4945513;29;20776;-92
2022/11/01 05:40:10;;;;;;;15.35;14.05;;;;;;;;;;4953530;28;20397;-92
2022/11/01 05:42:38;;;;;;;16.35;14.95;;;;;;;;;;4953337;28;20402;-91
2022/11/01 05:45:08;;;;;;;15.57;14.38;;;;;;;;;;4967014;28;20754;-90
2022/11/01 05:47:35;;;;;;;17.40;15.90;;;;;;;;;;4970840;28;20451;-89
2022/11/01 05:50:01;;;;;;;17.05;15.65;;;;;;;;;;4972443;28;20408;-92
2022/11/01 05:52:27;;;;;;;16.65;15.15;;;;;;;;;;4973292;28;20392;-90
2022/11/01 05:54:55;;;;;;;15.57;14.23;;;;;;;;;;4955989;28;20392;-90
2022/11/01 05:57:21;;;;;;;17.50;16.05;;;;;;;;;;4972097;28;20424;-90
2022/11/01 05:59:47;;;;;;;16.35;14.98;;;;;;;;;;4972626;28;20458;-91
2022/11/01 06:02:13;;;;;;;16.07;14.67;;;;;;;;;;4971214;28;20896;-90
2022/11/01 06:04:39;;;;;;;15.38;14.15;;;;;;;;;;4972480;28;20399;-92
2022/11/01 06:07:05;;;;;;;15.07;13.88;;;;;;;;;;4972960;28;20420;-91
2022/11/01 06:09:31;;;;;;;14.98;13.77;;;;;;;;;;4974243;28;20483;-91
2022/11/01 06:11:57;;;;;;;15.80;14.40;;;;;;;;;;5003653;28;20846;-92
2022/11/01 06:14:26;;;;;;;15.75;14.40;;;;;;;;;;4998945;28;20838;-91
2022/11/01 06:16:55;;;;;;;16.17;14.87;;;;;;;;;;5002691;28;20401;-91
2022/11/01 06:19:23;;;;;;;16.50;15.00;;;;;;;;;;4999664;28;20391;-89
2022/11/01 06:21:50;;;;;;;14.68;13.48;;;;;;;;;;4991976;28;20410;-89
2022/11/01 06:24:16;;;;;;;14.30;13.10;;;;;;;;;;5007861;28;20880;-91
2022/11/01 06:26:42;;;;;;;15.45;14.13;;;;;;;;;;5031906;28;20383;-91
2022/11/01 06:29:08;;;;;;;15.48;14.05;;;;;;;;;;5031563;28;20480;-90
2022/11/01 06:31:34;;;;;;;13.98;12.88;;;;;;;;;;5017079;28;20375;-89
2022/11/01 06:34:00;;;;;;;14.93;13.63;;;;;;;;;;5030697;28;20380;-90
2022/11/01 06:36:29;;;;;;;15.27;13.82;;;;;;;;;;5032255;28;20427;-92
2022/11/01 06:38:55;;;;;;;15.40;14.05;;;;;;;;;;5011126;28;20395;-87
2022/11/01 06:41:21;;;;;;;15.73;14.23;;;;;;;;;;5013565;28;20397;-90
2022/11/01 06:43:50;;;;;;;14.70;13.50;;;;;;;;;;5023207;28;20398;-88
2022/11/01 06:46:16;;;;;;;15.52;14.15;;;;;;;;;;5032607;28;20387;-89
2022/11/01 06:48:42;;;;;;;20.08;17.98;;;;;;;;;;5027789;28;20408;-89
2022/11/01 06:51:08;;;;;;;20.60;17.35;;;;;;;;;;5019069;28;20442;-93
2022/11/01 06:53:34;;;;;;;20.77;17.97;;;;;;;;;;5019804;28;20387;-93
2022/11/01 06:56:01;;;;;;;20.92;18.60;;;;;;;;;;5029373;28;20377;-92
2022/11/01 06:58:27;;;;;;;19.88;17.88;;;;;;;;;;5030161;28;20888;-93
2022/11/01 07:00:53;;;;;;;19.88;17.77;;;;;;;;;;5027837;28;20392;-93
2022/11/01 07:03:19;;;;;;;19.77;17.67;;;;;;;;;;5021057;28;20385;-92
2022/11/01 07:05:48;;;;;;;18.30;16.40;;;;;;;;;;5018748;28;20426;-91
2022/11/01 07:08:14;;;;;;;18.65;16.67;;;;;;;;;;5033412;28;20407;-90
2022/11/01 07:10:41;;;;;;;19.60;16.57;;;;;;;;;;5033421;28;20387;-90
2022/11/01 07:13:09;;;;;;;17.00;15.30;;;;;;;;;;5033230;28;20521;-90
2022/11/01 07:15:35;;;;;;;18.23;16.33;;;;;;;;;;5033495;28;20406;-91
2022/11/01 07:18:02;;;;;;;17.55;15.73;;;;;;;;;;5032980;28;20386;-90
2022/11/01 07:20:29;;;;;;;20.40;18.20;;;;;;;;;;5037182;28;20915;-91
2022/11/01 07:22:59;;;;;;;17.80;16.00;;;;;;;;;;5028360;28;20472;-91
2022/11/01 07:25:25;;;;;;;17.80;15.90;;;;;;;;;;5036421;28;20379;-92
2022/11/01 07:27:51;;;;;;;17.80;16.00;;;;;;;;;;5016546;28;20408;-93
2022/11/01 07:30:20;;;;;;;17.25;15.43;;;;;;;;;;5037115;28;20460;-92
2022/11/01 07:32:46;;;;;;;16.25;14.75;;;;;;;;;;5035739;28;20449;-94
2022/11/01 07:35:18;;;;;;;18.35;15.70;;;;;;;;;;5036620;28;20436;-93
2022/11/01 07:37:47;;;;;;;17.17;15.50;;;;;;;;;;5037000;28;20379;-91
2022/11/01 07:40:13;;;;;;;17.23;15.63;;;;;;;;;;5037197;28;20441;-94
2022/11/01 07:42:47;;;;;;;18.33;16.50;;;;;;;;;;5036632;28;20886;-92
2022/11/01 07:45:19;;;;;;;18.42;16.65;;;;;;;;;;5036472;28;20383;-91
2022/11/01 07:47:45;;;;;;;16.85;15.13;;;;;;;;;;5036893;28;20497;-89
2022/11/01 07:50:11;;;;;;;17.77;16.00;;;;;;;;;;5031543;28;20466;-90
2022/11/01 07:52:58;;;;;;;18.02;16.13;;;;;;;;;;5036399;28;20950;-91
2022/11/01 07:55:26;;;;;;;17.75;16.05;;;;;;;;;;5031412;28;20720;-92
2022/11/01 07:57:52;;;;;;;17.80;16.10;;;;;;;;;;5019002;28;20418;-89
2022/11/01 08:00:31;;;;;;;27.35;21.77;;;;;;;;;;5028278;28;20414;-90
2022/11/01 08:03:04;;;;;;;15.85;14.15;;;;;;;;;;5032160;28;20739;-91
2022/11/01 08:05:30;;;;;;;15.88;14.38;;;;;;;;;;5020370;28;20448;-89
2022/11/01 08:08:01;;;;;;;16.95;15.25;;;;;;;;;;5036053;28;20411;-92
2022/11/01 08:10:28;;;;;;;15.80;14.40;;;;;;;;;;5031931;28;20459;-90
2022/11/01 08:13:03;;;;;;;18.05;16.42;;;;;;;;;;5035533;28;20382;-92
2022/11/01 08:15:29;;;;;;;17.58;16.05;;;;;;;;;;5036024;28;20425;-90
2022/11/01 08:17:59;;;;;;;19.75;17.75;;;;;;;;;;5035819;28;20383;-90
2022/11/01 08:20:29;;;;;;;18.65;16.80;;;;;;;;;;5035579;28;20474;-89
2022/11/01 08:22:58;;;;;;;18.97;17.07;;;;;;;;;;5035483;28;20852;-89
2022/11/01 08:25:26;;;;;;;18.33;16.63;;;;;;;;;;5035568;28;20387;-89
2022/11/01 08:27:52;;;;;;;19.45;17.55;;;;;;;;;;5023759;28;20428;-91
2022/11/01 08:30:22;;;;;;;21.02;19.13;;;;;;;;;;5034443;28;20383;-90
2022/11/01 08:32:50;;;;;;;24.38;21.88;;;;;;;;;;5033559;28;20379;-90
2022/11/01 08:35:25;;;;;;;22.20;20.07;;;;;;;;;;5017770;28;20471;-90
2022/11/01 08:37:58;;;;;;;20.08;18.02;;;;;;;;;;5010135;28;20416;-90
2022/11/01 08:40:32;;;;;;;19.58;17.67;;;;;;;;;;5035367;28;20903;-89
2022/11/01 08:42:59;;;;;;;19.73;17.90;;;;;;;;;;5015641;28;20864;-89
2022/11/01 08:45:36;;;;;;;20.70;18.52;;;;;;;;;;5034877;28;20741;-91
2022/11/01 08:48:17;;;;;;;21.27;19.08;;;;;;;;;;5020121;28;20423;-90
2022/11/01 08:50:48;;;;;;;18.95;17.20;;;;;;;;;;5031782;28;20405;-90
2022/11/01 08:53:14;;;;;;;20.77;18.77;;;;;;;;;;5035305;28;20371;-90
2022/11/01 08:55:41;;;;;;;20.85;18.85;;;;;;;;;;5021636;28;20386;-89
2022/11/01 08:58:13;;;;;;;22.03;19.80;;;;;;;;;;5028538;28;20386;-88
2022/11/01 09:00:43;;;;;;;19.38;17.67;;;;;;;;;;5019728;28;20383;-90
2022/11/01 09:03:09;;;;;;;18.50;16.83;;;;;;;;;;5027389;28;20550;-90
2022/11/01 09:05:38;;;;;;;17.35;15.65;;;;;;;;;;5003967;28;20924;-88
2022/11/01 09:08:06;;;;;;;17.13;15.52;;;;;;;;;;5006759;28;20414;-89
2022/11/01 09:10:35;;;;;;;17.23;15.57;;;;;;;;;;5027904;28;20391;-89
2022/11/01 09:13:04;;;;;;;16.55;15.10;;;;;;;;;;5029152;28;20365;-92
2022/11/01 09:15:30;;;;;;;16.07;14.67;;;;;;;;;;5027850;28;20383;-90
2022/11/01 09:17:56;;;;;;;15.98;14.48;;;;;;;;;;5008385;28;20430;-89
2022/11/01 09:20:22;;;;;;;17.50;16.00;;;;;;;;;;5024107;28;20978;-88
2022/11/01 09:22:52;;;;;;;17.83;16.23;;;;;;;;;;5012875;28;20396;-89
2022/11/01 09:25:20;;;;;;;17.17;15.60;;;;;;;;;;5030187;28;20383;-90
2022/11/01 09:27:52;;;;;;;16.85;15.23;;;;;;;;;;5034326;28;20438;-88
2022/11/01 09:30:18;;;;;;;17.88;16.15;;;;;;;;;;5035229;28;20389;-90
2022/11/01 09:32:44;;;;;;;18.60;16.65;;;;;;;;;;5020669;28;20388;-91
2022/11/01 09:35:13;;;;;;;22.50;19.95;;;;;;;;;;5029255;28;20381;-92
2022/11/01 09:37:39;;;;;;;18.02;16.10;;;;;;;;;;5018126;28;20716;-91
2022/11/01 09:40:09;;;;;;;21.42;16.90;;;;;;;;;;5013058;28;20384;-92
2022/11/01 09:42:40;;;;;;;16.25;14.45;;;;;;;;;;5012182;28;20397;-89
2022/11/01 09:45:09;;;;;;;12.55;11.25;;;;;;;;;;5032132;28;20433;-90
2022/11/01 09:47:38;;;;;;;10.20;9.05;;;;;;;;;;5016068;28;20930;-89
2022/11/01 09:50:24;;;;;;;8.10;7.30;;;;;;;;;;5021835;28;20687;-89
2022/11/01 09:52:56;;;;;;;7.47;5.80;;;;;;;;;;5034156;28;20371;-90
2022/11/01 09:55:31;;;;;;;5.80;5.20;;;;;;;;;;5035855;28;20383;-91
2022/11/01 09:58:17;;;;;;;7.23;4.87;;;;;;;;;;5017465;28;20388;-91
2022/11/01 10:00:47;;;;;;;6.78;4.75;;;;;;;;;;5021772;28;20371;-91
2022/11/01 10:03:32;;;;;;;5.57;4.38;;;;;;;;;;5030614;28;20388;-92
2022/11/01 10:06:10;;;;;;;8.48;4.25;;;;;;;;;;5005911;28;20456;-92
2022/11/01 10:08:43;;;;;;;7.05;4.07;;;;;;;;;;5030153;28;20504;-92
2022/11/01 10:17:02;;;;;;;4.78;3.88;;;;;;;;;;5035403;28;20869;-90
2022/11/01 10:19:40;;;;;;;6.50;4.00;;;;;;;;;;5035736;28;20748;-88
2022/11/01 10:22:14;;;;;;;6.68;3.70;;;;;;;;;;5033370;28;20744;-93
2022/11/01 10:24:40;;;;;;;5.30;3.22;;;;;;;;;;5020824;28;20556;-84
2022/11/01 10:27:19;;;;;;;5.43;3.40;;;;;;;;;;5011382;28;20474;-86
2022/11/01 10:29:51;;;;;;;5.67;3.43;;;;;;;;;;5003593;28;20534;-87
2022/11/01 10:32:29;;;;;;;4.20;2.78;;;;;;;;;;5013098;28;20853;-85
2022/11/01 10:35:02;;;;;;;3.60;2.70;;;;;;;;;;5011311;28;20406;-88
2022/11/01 10:37:50;;;;;;;3.97;2.72;;;;;;;;;;5013583;28;20377;-86
2022/11/01 10:40:22;;;;;;;5.65;2.92;;;;;;;;;;5018701;28;20391;-87
2022/11/01 10:42:48;;;;;;;4.40;2.65;;;;;;;;;;5032722;28;20883;-88
2022/11/01 10:45:22;;;;;;;5.33;3.30;;;;;;;;;;5033423;28;20403;-88
2022/11/01 10:47:57;;;;;;;6.20;2.67;;;;;;;;;;5033369;28;20415;-92
2022/11/01 10:50:27;;;;;;;3.65;2.58;;;;;;;;;;5034820;28;20403;-88
2022/11/01 10:52:59;;;;;;;4.73;2.73;;;;;;;;;;5033393;28;20399;-92
2022/11/01 10:55:28;;;;;;;4.13;2.65;;;;;;;;;;5010235;28;20381;-89
2022/11/01 10:58:20;;;;;;;5.45;2.65;;;;;;;;;;5012654;28;20376;-90
2022/11/01 11:00:46;;;;;;;4.00;2.72;;;;;;;;;;5009016;28;20379;-89
2022/11/01 11:03:23;;;;;;;6.60;3.00;;;;;;;;;;5000339;28;20473;-88
2022/11/01 11:05:55;;;;;;;3.93;3.30;;;;;;;;;;4999746;28;20478;-90
2022/11/01 11:08:44;;;;;;;5.13;2.85;;;;;;;;;;4996677;28;20414;-89
2022/11/01 11:19:41;;;;;;;3.80;2.88;;;;;;;;;;5053862;28;20400;-93
2022/11/01 11:22:16;;;;;;;5.73;2.50;;;;;;;;;;5054676;28;20406;-90
2022/11/01 11:24:51;;;;;;;4.95;2.90;;;;;;;;;;5030828;28;20462;-87
2022/11/01 11:27:36;;;;;;;4.00;2.65;;;;;;;;;;5033392;28;20414;-93
2022/11/01 11:30:04;;;;;;;4.65;2.55;;;;;;;;;;5021215;28;20860;-88
2022/11/01 11:32:37;;;;;;;4.70;2.70;;;;;;;;;;5044704;28;20437;-94
2022/11/01 11:35:25;;;;;;;2.95;2.03;;;;;;;;;;5029182;28;20446;-95
2022/11/01 11:37:57;;;;;;;3.77;2.50;;;;;;;;;;5044517;28;20462;-92
2022/11/01 11:43:19;;;;;;;3.78;2.20;;;;;;;;;;5820744;23;20476;-93
2022/11/01 11:46:07;;;;;;;5.00;2.53;;;;;;;;;;5026030;28;20379;-93
2022/11/01 15:57:44;;;;;;;5.13;3.78;;;;;;;;;;6155991;23;20386;-91
2022/11/01 16:00:27;;;;;;;4.65;3.85;;;;;;;;;;5021174;28;20399;-92
2022/11/01 16:06:25;;;;;;;3.77;2.57;;;;;;;;;;5005949;28;20415;-90
2022/11/01 16:14:52;;;;;;;4.50;2.40;;;;;;;;;;5054939;23;20490;-93
2022/11/01 16:17:55;;;;;;;3.27;2.40;;;;;;;;;;5045237;28;20421;-93
2022/11/01 16:26:15;;;;;;;3.10;2.08;;;;;;;;;;5106738;23;20431;-92
2022/11/01 16:28:49;;;;;;;4.15;2.42;;;;;;;;;;5026526;28;20416;-92
2022/11/01 16:31:40;;;;;;;2.87;2.13;;;;;;;;;;5036612;28;20423;-92
2022/11/01 16:37:38;;;;;;;3.58;2.10;;;;;;;;;;5025760;28;20367;-90
2022/11/01 16:40:25;;;;;;;3.78;2.60;;;;;;;;;;5037516;28;20918;-93
2022/11/01 16:43:21;;;;;;;5.80;3.30;;;;;;;;;;5036055;28;20379;-91
2022/11/01 16:45:48;;;;;;;5.38;3.72;;;;;;;;;;4939839;29;20391;-91
2022/11/01 16:48:26;;;;;;;3.92;3.53;;;;;;;;;;5028938;28;20421;-92
2022/11/01 16:50:53;;;;;;;4.60;3.80;;;;;;;;;;5034189;28;20760;-94
2022/11/01 16:53:20;;;;;;;4.40;3.50;;;;;;;;;;5033084;28;20383;-91
2022/11/01 16:55:46;;;;;;;3.65;3.35;;;;;;;;;;5016842;28;20386;-91
2022/11/01 16:58:17;;;;;;;5.82;4.03;;;;;;;;;;5034284;28;20417;-92
2022/11/01 17:00:57;;;;;;;5.63;5.03;;;;;;;;;;5016932;28;20757;-92
2022/11/01 17:03:27;;;;;;;5.70;5.00;;;;;;;;;;5034636;28;20446;-91
2022/11/01 17:05:53;;;;;;;7.30;5.32;;;;;;;;;;5035786;28;20918;-91
2022/11/01 17:08:20;;;;;;;6.90;5.40;;;;;;;;;;5035388;28;20407;-90
2022/11/01 17:10:47;;;;;;;6.47;5.20;;;;;;;;;;5017213;28;20454;-90
2022/11/01 17:21:30;;;;;;;4.00;3.00;;;;;;;;;;6003357;23;20428;-90
2022/11/01 17:23:56;;;;;;;4.35;3.20;;;;;;;;;;5056573;28;20385;-92
2022/11/01 17:26:22;;;;;;;6.03;2.97;;;;;;;;;;5061297;28;20394;-93
2022/11/01 17:28:54;;;;;;;5.63;3.35;;;;;;;;;;5054676;28;20466;-93
2022/11/01 17:31:23;;;;;;;4.63;3.00;;;;;;;;;;5053300;28;20472;-92
2022/11/01 17:33:49;;;;;;;4.88;4.00;;;;;;;;;;5042398;28;20383;-92
2022/11/01 17:36:16;;;;;;;4.78;3.17;;;;;;;;;;5036592;28;20377;-91
2022/11/01 17:38:43;;;;;;;5.70;3.08;;;;;;;;;;5034667;28;20399;-91
2022/11/01 17:41:16;;;;;;;6.22;3.47;;;;;;;;;;5030808;28;20793;-92
2022/11/01 17:43:42;;;;;;;6.03;3.60;;;;;;;;;;5055140;28;20389;-91
2022/11/01 17:46:18;;;;;;;5.03;3.72;;;;;;;;;;5045072;28;20379;-91
2022/11/01 17:48:44;;;;;;;4.88;3.33;;;;;;;;;;5026627;28;20893;-89
2022/11/01 17:51:11;;;;;;;5.13;3.28;;;;;;;;;;5054797;28;20452;-94
2022/11/01 17:53:38;;;;;;;3.42;2.42;;;;;;;;;;5037250;28;20391;-93
2022/11/01 17:56:05;;;;;;;5.20;3.03;;;;;;;;;;5040132;28;20390;-88
2022/11/01 17:58:31;;;;;;;4.25;2.50;;;;;;;;;;5050535;28;20381;-89
2022/11/01 18:00:57;;;;;;;3.47;2.30;;;;;;;;;;5054188;28;20929;-92
2022/11/01 18:03:23;;;;;;;3.97;2.58;;;;;;;;;;5039269;28;20389;-93
2022/11/01 18:05:54;;;;;;;5.70;2.75;;;;;;;;;;5036038;28;20387;-92
2022/11/01 18:08:22;;;;;;;5.63;2.35;;;;;;;;;;5014884;28;20486;-91
2022/11/01 18:11:21;;;;;;;5.60;2.38;;;;;;;;;;5034080;28;20797;-89
2022/11/01 18:13:56;;;;;;;4.00;2.40;;;;;;;;;;4999419;28;20453;-91
2022/11/01 18:16:22;;;;;;;3.38;2.45;;;;;;;;;;5040646;28;20380;-90
2022/11/01 18:18:51;;;;;;;3.35;2.40;;;;;;;;;;5053971;28;20381;-90
2022/11/01 18:21:29;;;;;;;3.35;2.42;;;;;;;;;;5034680;28;20391;-90
2022/11/01 18:23:56;;;;;;;3.92;2.75;;;;;;;;;;5032147;28;20427;-90
2022/11/01 18:26:23;;;;;;;5.03;2.83;;;;;;;;;;5034234;28;20391;-91
2022/11/01 18:28:54;;;;;;;5.03;2.20;;;;;;;;;;5027152;28;20910;-92
2022/11/01 18:31:32;;;;;;;4.97;2.47;;;;;;;;;;5033139;28;20388;-92
2022/11/01 18:34:03;;;;;;;2.95;2.45;;;;;;;;;;5052326;28;20433;-91
2022/11/01 18:36:43;;;;;;;3.50;2.40;;;;;;;;;;5039216;28;20393;-91
2022/11/01 18:39:16;;;;;;;5.97;4.72;;;;;;;;;;5043995;28;20862;-91
2022/11/01 18:41:44;;;;;;;6.90;5.03;;;;;;;;;;5052544;28;20851;-93
2022/11/01 18:44:12;;;;;;;7.95;5.22;;;;;;;;;;5045234;28;20381;-91
2022/11/01 18:46:41;;;;;;;7.13;5.68;;;;;;;;;;5052392;28;20392;-91
2022/11/01 18:49:10;;;;;;;6.47;4.78;;;;;;;;;;5052737;28;20401;-91
2022/11/01 18:51:38;;;;;;;6.03;4.22;;;;;;;;;;5052136;28;20468;-93
2022/11/01 18:54:11;;;;;;;6.28;4.20;;;;;;;;;;5039885;28;20728;-92
2022/11/01 18:56:38;;;;;;;4.93;4.00;;;;;;;;;;5039910;28;20410;-93
2022/11/01 18:59:13;;;;;;;5.63;3.85;;;;;;;;;;5028203;28;20891;-92
2022/11/01 19:01:40;;;;;;;4.68;3.67;;;;;;;;;;5214958;23;20431;-90
2022/11/01 19:04:45;;;;;;;9.00;4.30;;;;;;;;;;5034130;28;20470;-91
2022/11/01 19:07:15;;;;;;;4.97;3.58;;;;;;;;;;4955983;28;20819;-91
2022/11/01 19:09:54;;;;;;;5.38;3.53;;;;;;;;;;5028714;28;20391;-91
2022/11/01 19:12:28;;;;;;;5.38;4.15;;;;;;;;;;5027657;28;20441;-89
2022/11/01 19:15:02;;;;;;;9.13;4.90;;;;;;;;;;5027348;28;20383;-89
2022/11/01 19:17:36;;;;;;;5.07;4.35;;;;;;;;;;5034251;28;20389;-91
2022/11/01 19:20:14;;;;;;;6.20;4.38;;;;;;;;;;5035069;28;20379;-92
2022/11/01 19:22:42;;;;;;;5.50;3.65;;;;;;;;;;5036812;28;20389;-91
2022/11/01 19:25:17;;;;;;;6.17;3.40;;;;;;;;;;5017418;28;20884;-92
2022/11/01 19:27:43;;;;;;;4.22;2.95;;;;;;;;;;5034932;28;20409;-90
2022/11/01 19:30:31;;;;;;;3.70;2.55;;;;;;;;;;5019876;28;20396;-91
2022/11/01 19:33:18;;;;;;;4.43;3.10;;;;;;;;;;5027380;28;21293;-90
2022/11/01 19:36:06;;;;;;;7.25;4.55;;;;;;;;;;5019852;28;20954;-92
2022/11/01 19:38:35;;;;;;;5.18;4.10;;;;;;;;;;5029468;28;20406;-91
2022/11/01 19:41:01;;;;;;;4.95;3.40;;;;;;;;;;5025395;28;20388;-92
2022/11/01 19:43:27;;;;;;;4.32;3.50;;;;;;;;;;5037591;28;20482;-91
2022/11/01 21:14:19;;;;;;;3.13;2.20;;;;;;;;;;6046854;23;20375;-88
2022/11/01 21:16:46;;;;;;;3.92;2.40;;;;;;;;;;5011883;28;20435;-91
2022/11/01 21:19:19;;;;;;;3.65;2.55;;;;;;;;;;5023577;28;20411;-92
2022/11/01 21:21:47;;;;;;;4.22;3.00;;;;;;;;;;5021598;28;20488;-91
2022/11/01 21:24:33;;;;;;;3.90;2.95;;;;;;;;;;5024049;28;20873;-94
